sensor_id;sensor_type;location;lat;lon;timestamp;temperature;humidity
16970;DHT22;8601;48.718;8.992;2022-08-11T00:00:33;19.20;56.90
16970;DHT22;8601;48.718;8.992;2022-08-11T00:03:05;19.20;57.00
16970;DHT22;8601;48.718;8.992;2022-08-11T00:05:42;19.20;56.70
16970;DHT22;8601;48.718;8.992;2022-08-11T00:08:10;19.20;57.00
16970;DHT22;8601;48.718;8.992;2022-08-11T00:10:38;19.20;56.70
16970;DHT22;8601;48.718;8.992;2022-08-11T00:13:06;19.10;57.20
16970;DHT22;8601;48.718;8.992;2022-08-11T00:15:39;19.10;57.30
16970;DHT22;8601;48.718;8.992;2022-08-11T00:18:07;19.00;57.30
16970;DHT22;8601;48.718;8.992;2022-08-11T00:20:37;19.10;57.50
16970;DHT22;8601;48.718;8.992;2022-08-11T00:23:08;19.00;57.40
16970;DHT22;8601;48.718;8.992;2022-08-11T00:25:38;19.00;57.90
16970;DHT22;8601;48.718;8.992;2022-08-11T00:28:22;18.90;58.00
16970;DHT22;8601;48.718;8.992;2022-08-11T00:31:02;18.90;58.70
16970;DHT22;8601;48.718;8.992;2022-08-11T00:33:33;18.80;58.10
16970;DHT22;8601;48.718;8.992;2022-08-11T00:36:02;18.90;57.60
16970;DHT22;8601;48.718;8.992;2022-08-11T00:38:33;18.90;57.40
16970;DHT22;8601;48.718;8.992;2022-08-11T00:41:10;18.90;58.20
16970;DHT22;8601;48.718;8.992;2022-08-11T00:43:54;18.90;58.30
16970;DHT22;8601;48.718;8.992;2022-08-11T00:46:34;18.80;58.80
16970;DHT22;8601;48.718;8.992;2022-08-11T00:49:17;18.70;58.00
16970;DHT22;8601;48.718;8.992;2022-08-11T00:52:04;18.70;59.00
16970;DHT22;8601;48.718;8.992;2022-08-11T00:55:02;18.70;59.40
16970;DHT22;8601;48.718;8.992;2022-08-11T00:58:05;18.60;59.70
16970;DHT22;8601;48.718;8.992;2022-08-11T01:01:00;18.60;59.60
16970;DHT22;8601;48.718;8.992;2022-08-11T01:03:53;18.60;59.10
16970;DHT22;8601;48.718;8.992;2022-08-11T01:06:44;18.80;58.70
16970;DHT22;8601;48.718;8.992;2022-08-11T01:09:23;18.60;59.30
16970;DHT22;8601;48.718;8.992;2022-08-11T01:12:15;18.60;59.30
16970;DHT22;8601;48.718;8.992;2022-08-11T01:21:19;18.50;59.60
16970;DHT22;8601;48.718;8.992;2022-08-11T01:24:24;18.40;59.80
16970;DHT22;8601;48.718;8.992;2022-08-11T01:27:46;18.50;59.70
16970;DHT22;8601;48.718;8.992;2022-08-11T01:37:02;18.30;60.20
16970;DHT22;8601;48.718;8.992;2022-08-11T01:45:52;18.20;60.60
16970;DHT22;8601;48.718;8.992;2022-08-11T01:48:33;18.20;60.20
16970;DHT22;8601;48.718;8.992;2022-08-11T01:51:11;18.10;60.50
16970;DHT22;8601;48.718;8.992;2022-08-11T01:53:52;18.00;60.80
16970;DHT22;8601;48.718;8.992;2022-08-11T01:56:32;18.00;60.80
16970;DHT22;8601;48.718;8.992;2022-08-11T01:59:08;18.00;60.80
16970;DHT22;8601;48.718;8.992;2022-08-11T02:01:42;18.00;60.80
16970;DHT22;8601;48.718;8.992;2022-08-11T02:04:18;18.00;60.70
16970;DHT22;8601;48.718;8.992;2022-08-11T02:06:52;18.00;60.80
16970;DHT22;8601;48.718;8.992;2022-08-11T02:09:52;17.90;61.40
16970;DHT22;8601;48.718;8.992;2022-08-11T02:12:36;18.00;61.40
16970;DHT22;8601;48.718;8.992;2022-08-11T02:15:11;17.90;61.90
16970;DHT22;8601;48.718;8.992;2022-08-11T02:17:48;18.00;62.00
16970;DHT22;8601;48.718;8.992;2022-08-11T02:20:19;17.90;61.60
16970;DHT22;8601;48.718;8.992;2022-08-11T02:23:16;17.90;62.50
16970;DHT22;8601;48.718;8.992;2022-08-11T02:26:08;17.90;61.90
16970;DHT22;8601;48.718;8.992;2022-08-11T02:28:52;17.90;62.50
16970;DHT22;8601;48.718;8.992;2022-08-11T02:31:26;17.90;61.90
16970;DHT22;8601;48.718;8.992;2022-08-11T02:34:23;17.80;62.30
16970;DHT22;8601;48.718;8.992;2022-08-11T02:36:59;17.80;61.60
16970;DHT22;8601;48.718;8.992;2022-08-11T02:39:35;17.80;62.10
16970;DHT22;8601;48.718;8.992;2022-08-11T02:42:18;17.80;61.90
16970;DHT22;8601;48.718;8.992;2022-08-11T02:47:45;17.80;62.70
16970;DHT22;8601;48.718;8.992;2022-08-11T02:50:39;17.80;62.60
16970;DHT22;8601;48.718;8.992;2022-08-11T02:53:12;17.70;63.20
16970;DHT22;8601;48.718;8.992;2022-08-11T02:55:52;17.50;63.10
16970;DHT22;8601;48.718;8.992;2022-08-11T02:58:30;17.60;63.40
16970;DHT22;8601;48.718;8.992;2022-08-11T03:01:06;17.50;63.40
16970;DHT22;8601;48.718;8.992;2022-08-11T03:03:43;17.60;63.30
16970;DHT22;8601;48.718;8.992;2022-08-11T03:06:26;17.60;63.20
16970;DHT22;8601;48.718;8.992;2022-08-11T03:09:03;17.50;64.20
16970;DHT22;8601;48.718;8.992;2022-08-11T03:11:45;17.40;64.40
16970;DHT22;8601;48.718;8.992;2022-08-11T03:14:57;17.40;65.00
16970;DHT22;8601;48.718;8.992;2022-08-11T03:17:56;17.20;64.60
16970;DHT22;8601;48.718;8.992;2022-08-11T03:20:34;17.20;65.20
16970;DHT22;8601;48.718;8.992;2022-08-11T03:23:07;17.20;65.40
16970;DHT22;8601;48.718;8.992;2022-08-11T03:25:50;17.20;65.40
16970;DHT22;8601;48.718;8.992;2022-08-11T03:28:28;17.20;66.00
16970;DHT22;8601;48.718;8.992;2022-08-11T03:31:09;17.30;66.30
16970;DHT22;8601;48.718;8.992;2022-08-11T03:33:43;17.30;65.50
16970;DHT22;8601;48.718;8.992;2022-08-11T03:36:53;17.40;65.80
16970;DHT22;8601;48.718;8.992;2022-08-11T03:39:34;17.40;65.00
16970;DHT22;8601;48.718;8.992;2022-08-11T03:42:11;17.30;65.50
16970;DHT22;8601;48.718;8.992;2022-08-11T03:44:54;17.30;64.90
16970;DHT22;8601;48.718;8.992;2022-08-11T03:47:42;17.30;64.70
16970;DHT22;8601;48.718;8.992;2022-08-11T03:50:26;17.20;65.10
16970;DHT22;8601;48.718;8.992;2022-08-11T03:53:04;17.20;65.10
16970;DHT22;8601;48.718;8.992;2022-08-11T03:55:57;17.10;65.60
16970;DHT22;8601;48.718;8.992;2022-08-11T04:01:47;17.10;66.30
16970;DHT22;8601;48.718;8.992;2022-08-11T04:11:19;17.00;66.50
16970;DHT22;8601;48.718;8.992;2022-08-11T04:14:10;17.00;66.60
16970;DHT22;8601;48.718;8.992;2022-08-11T04:17:48;16.90;66.70
16970;DHT22;8601;48.718;8.992;2022-08-11T04:20:35;16.90;67.00
16970;DHT22;8601;48.718;8.992;2022-08-11T04:23:41;16.90;67.50
16970;DHT22;8601;48.718;8.992;2022-08-11T04:29:54;16.90;67.50
16970;DHT22;8601;48.718;8.992;2022-08-11T04:32:56;16.80;68.00
16970;DHT22;8601;48.718;8.992;2022-08-11T04:35:38;16.70;68.30
16970;DHT22;8601;48.718;8.992;2022-08-11T04:38:34;16.70;68.50
16970;DHT22;8601;48.718;8.992;2022-08-11T04:41:37;16.70;68.40
16970;DHT22;8601;48.718;8.992;2022-08-11T04:47:50;16.60;68.70
16970;DHT22;8601;48.718;8.992;2022-08-11T04:50:51;16.60;69.20
16970;DHT22;8601;48.718;8.992;2022-08-11T04:53:49;16.60;68.80
16970;DHT22;8601;48.718;8.992;2022-08-11T04:56:39;16.70;68.50
16970;DHT22;8601;48.718;8.992;2022-08-11T04:59:46;16.70;68.30
16970;DHT22;8601;48.718;8.992;2022-08-11T05:03:08;16.70;68.50
16970;DHT22;8601;48.718;8.992;2022-08-11T05:09:17;16.60;69.60
16970;DHT22;8601;48.718;8.992;2022-08-11T05:12:20;16.60;68.80
16970;DHT22;8601;48.718;8.992;2022-08-11T05:14:55;16.60;69.10
16970;DHT22;8601;48.718;8.992;2022-08-11T05:17:44;16.60;69.00
16970;DHT22;8601;48.718;8.992;2022-08-11T05:20:29;16.60;69.20
16970;DHT22;8601;48.718;8.992;2022-08-11T05:23:18;16.60;69.40
16970;DHT22;8601;48.718;8.992;2022-08-11T05:26:07;16.60;69.70
16970;DHT22;8601;48.718;8.992;2022-08-11T05:28:55;16.70;70.20
16970;DHT22;8601;48.718;8.992;2022-08-11T05:31:56;16.70;70.10
16970;DHT22;8601;48.718;8.992;2022-08-11T05:34:43;16.80;70.10
16970;DHT22;8601;48.718;8.992;2022-08-11T05:37:22;16.80;69.90
16970;DHT22;8601;48.718;8.992;2022-08-11T05:39:55;16.90;69.80
16970;DHT22;8601;48.718;8.992;2022-08-11T05:42:47;17.70;71.00
16970;DHT22;8601;48.718;8.992;2022-08-11T05:45:33;19.50;69.30
16970;DHT22;8601;48.718;8.992;2022-08-11T05:48:18;19.30;62.20
16970;DHT22;8601;48.718;8.992;2022-08-11T05:51:04;18.90;63.70
16970;DHT22;8601;48.718;8.992;2022-08-11T05:53:51;18.40;64.80
16970;DHT22;8601;48.718;8.992;2022-08-11T05:56:43;18.30;65.70
16970;DHT22;8601;48.718;8.992;2022-08-11T05:59:13;18.10;66.30
16970;DHT22;8601;48.718;8.992;2022-08-11T06:01:42;18.00;66.50
16970;DHT22;8601;48.718;8.992;2022-08-11T06:04:19;17.90;67.00
16970;DHT22;8601;48.718;8.992;2022-08-11T06:06:54;17.80;67.60
16970;DHT22;8601;48.718;8.992;2022-08-11T06:09:31;17.70;68.00
16970;DHT22;8601;48.718;8.992;2022-08-11T06:12:02;17.80;68.50
16970;DHT22;8601;48.718;8.992;2022-08-11T06:14:31;17.90;68.70
16970;DHT22;8601;48.718;8.992;2022-08-11T06:17:01;18.00;68.20
16970;DHT22;8601;48.718;8.992;2022-08-11T06:19:35;18.10;68.20
16970;DHT22;8601;48.718;8.992;2022-08-11T06:22:05;18.30;67.00
16970;DHT22;8601;48.718;8.992;2022-08-11T06:24:35;18.60;66.30
16970;DHT22;8601;48.718;8.992;2022-08-11T06:27:04;18.90;65.10
16970;DHT22;8601;48.718;8.992;2022-08-11T06:29:33;19.00;64.40
16970;DHT22;8601;48.718;8.992;2022-08-11T06:32:05;19.20;65.10
16970;DHT22;8601;48.718;8.992;2022-08-11T06:34:46;19.00;65.70
16970;DHT22;8601;48.718;8.992;2022-08-11T06:37:20;19.00;66.50
16970;DHT22;8601;48.718;8.992;2022-08-11T06:40:01;19.20;65.00
16970;DHT22;8601;48.718;8.992;2022-08-11T06:42:42;19.30;64.30
16970;DHT22;8601;48.718;8.992;2022-08-11T06:45:18;19.40;64.10
16970;DHT22;8601;48.718;8.992;2022-08-11T06:47:51;19.50;63.10
16970;DHT22;8601;48.718;8.992;2022-08-11T06:50:21;19.60;63.50
16970;DHT22;8601;48.718;8.992;2022-08-11T06:53:16;19.80;61.50
16970;DHT22;8601;48.718;8.992;2022-08-11T06:55:45;20.00;60.90
16970;DHT22;8601;48.718;8.992;2022-08-11T06:58:34;20.00;61.00
16970;DHT22;8601;48.718;8.992;2022-08-11T07:01:28;20.10;60.40
16970;DHT22;8601;48.718;8.992;2022-08-11T07:04:04;20.30;59.40
16970;DHT22;8601;48.718;8.992;2022-08-11T07:06:54;20.40;60.40
16970;DHT22;8601;48.718;8.992;2022-08-11T07:12:56;20.60;58.80
16970;DHT22;8601;48.718;8.992;2022-08-11T07:15:44;20.70;59.40
16970;DHT22;8601;48.718;8.992;2022-08-11T07:18:20;20.70;61.20
16970;DHT22;8601;48.718;8.992;2022-08-11T07:21:09;20.70;59.80
16970;DHT22;8601;48.718;8.992;2022-08-11T07:23:55;20.80;59.50
16970;DHT22;8601;48.718;8.992;2022-08-11T07:26:44;20.90;59.10
16970;DHT22;8601;48.718;8.992;2022-08-11T07:29:37;21.10;58.70
16970;DHT22;8601;48.718;8.992;2022-08-11T07:32:13;21.20;58.00
16970;DHT22;8601;48.718;8.992;2022-08-11T07:34:46;21.30;58.00
16970;DHT22;8601;48.718;8.992;2022-08-11T07:37:16;21.30;57.30
16970;DHT22;8601;48.718;8.992;2022-08-11T07:39:46;21.50;58.20
16970;DHT22;8601;48.718;8.992;2022-08-11T07:42:17;21.60;57.30
16970;DHT22;8601;48.718;8.992;2022-08-11T07:44:46;21.70;56.80
16970;DHT22;8601;48.718;8.992;2022-08-11T07:47:34;21.70;55.90
16970;DHT22;8601;48.718;8.992;2022-08-11T07:50:29;21.90;57.50
16970;DHT22;8601;48.718;8.992;2022-08-11T07:53:16;22.00;56.50
16970;DHT22;8601;48.718;8.992;2022-08-11T07:55:44;22.00;56.10
16970;DHT22;8601;48.718;8.992;2022-08-11T07:58:14;22.20;55.60
16970;DHT22;8601;48.718;8.992;2022-08-11T08:00:59;22.30;55.00
16970;DHT22;8601;48.718;8.992;2022-08-11T08:03:46;22.40;54.10
16970;DHT22;8601;48.718;8.992;2022-08-11T08:06:32;22.50;53.20
16970;DHT22;8601;48.718;8.992;2022-08-11T08:09:18;22.60;54.00
16970;DHT22;8601;48.718;8.992;2022-08-11T08:12:04;22.80;53.40
16970;DHT22;8601;48.718;8.992;2022-08-11T08:14:50;22.80;53.60
16970;DHT22;8601;48.718;8.992;2022-08-11T08:17:35;22.90;54.10
16970;DHT22;8601;48.718;8.992;2022-08-11T08:20:16;23.00;52.60
16970;DHT22;8601;48.718;8.992;2022-08-11T08:22:46;23.10;52.70
16970;DHT22;8601;48.718;8.992;2022-08-11T08:25:13;23.30;51.90
16970;DHT22;8601;48.718;8.992;2022-08-11T08:27:42;23.40;51.80
16970;DHT22;8601;48.718;8.992;2022-08-11T08:30:12;23.50;52.90
16970;DHT22;8601;48.718;8.992;2022-08-11T08:32:59;23.60;53.20
16970;DHT22;8601;48.718;8.992;2022-08-11T08:35:27;23.70;51.00
16970;DHT22;8601;48.718;8.992;2022-08-11T08:37:55;23.70;51.80
16970;DHT22;8601;48.718;8.992;2022-08-11T08:40:23;23.70;52.20
16970;DHT22;8601;48.718;8.992;2022-08-11T08:42:54;23.70;52.20
16970;DHT22;8601;48.718;8.992;2022-08-11T08:45:23;24.00;50.50
16970;DHT22;8601;48.718;8.992;2022-08-11T08:47:56;24.10;50.20
16970;DHT22;8601;48.718;8.992;2022-08-11T08:50:30;24.20;50.00
16970;DHT22;8601;48.718;8.992;2022-08-11T08:53:12;24.30;50.70
16970;DHT22;8601;48.718;8.992;2022-08-11T08:55:40;24.40;50.10
16970;DHT22;8601;48.718;8.992;2022-08-11T08:58:08;24.60;50.70
16970;DHT22;8601;48.718;8.992;2022-08-11T09:00:39;24.80;49.60
16970;DHT22;8601;48.718;8.992;2022-08-11T09:03:06;24.90;48.50
16970;DHT22;8601;48.718;8.992;2022-08-11T09:05:35;25.10;48.40
16970;DHT22;8601;48.718;8.992;2022-08-11T09:08:03;25.10;48.80
16970;DHT22;8601;48.718;8.992;2022-08-11T09:10:31;25.40;48.20
16970;DHT22;8601;48.718;8.992;2022-08-11T09:13:03;25.70;47.20
16970;DHT22;8601;48.718;8.992;2022-08-11T09:15:32;25.90;47.60
16970;DHT22;8601;48.718;8.992;2022-08-11T09:18:02;26.00;46.40
16970;DHT22;8601;48.718;8.992;2022-08-11T09:20:32;26.20;44.10
16970;DHT22;8601;48.718;8.992;2022-08-11T09:23:03;26.50;45.00
16970;DHT22;8601;48.718;8.992;2022-08-11T09:25:49;26.80;44.10
16970;DHT22;8601;48.718;8.992;2022-08-11T09:28:36;27.10;43.60
16970;DHT22;8601;48.718;8.992;2022-08-11T09:31:04;27.30;43.40
16970;DHT22;8601;48.718;8.992;2022-08-11T09:33:32;27.40;42.80
16970;DHT22;8601;48.718;8.992;2022-08-11T09:36:00;27.50;42.20
16970;DHT22;8601;48.718;8.992;2022-08-11T09:38:52;27.70;43.30
16970;DHT22;8601;48.718;8.992;2022-08-11T09:41:38;27.80;41.90
16970;DHT22;8601;48.718;8.992;2022-08-11T09:44:07;27.80;42.00
16970;DHT22;8601;48.718;8.992;2022-08-11T09:46:58;27.70;41.80
16970;DHT22;8601;48.718;8.992;2022-08-11T09:49:25;27.80;42.90
16970;DHT22;8601;48.718;8.992;2022-08-11T09:51:54;27.70;41.70
16970;DHT22;8601;48.718;8.992;2022-08-11T09:54:24;27.70;43.00
16970;DHT22;8601;48.718;8.992;2022-08-11T09:56:52;28.00;41.70
16970;DHT22;8601;48.718;8.992;2022-08-11T09:59:37;28.20;40.80
16970;DHT22;8601;48.718;8.992;2022-08-11T10:02:06;28.10;41.80
16970;DHT22;8601;48.718;8.992;2022-08-11T10:04:39;28.20;41.20
16970;DHT22;8601;48.718;8.992;2022-08-11T10:07:07;28.40;40.60
16970;DHT22;8601;48.718;8.992;2022-08-11T10:09:39;28.40;40.50
16970;DHT22;8601;48.718;8.992;2022-08-11T10:12:09;27.90;40.10
16970;DHT22;8601;48.718;8.992;2022-08-11T10:14:42;27.90;42.50
16970;DHT22;8601;48.718;8.992;2022-08-11T10:17:36;28.10;41.50
16970;DHT22;8601;48.718;8.992;2022-08-11T10:20:06;28.30;39.80
16970;DHT22;8601;48.718;8.992;2022-08-11T10:22:34;28.50;40.40
16970;DHT22;8601;48.718;8.992;2022-08-11T10:25:41;28.60;39.10
16970;DHT22;8601;48.718;8.992;2022-08-11T10:28:26;28.80;39.70
16970;DHT22;8601;48.718;8.992;2022-08-11T10:30:54;29.00;39.60
16970;DHT22;8601;48.718;8.992;2022-08-11T10:33:39;29.00;39.50
16970;DHT22;8601;48.718;8.992;2022-08-11T10:36:25;29.20;38.80
16970;DHT22;8601;48.718;8.992;2022-08-11T10:38:52;29.20;38.40
16970;DHT22;8601;48.718;8.992;2022-08-11T10:41:21;29.30;38.10
16970;DHT22;8601;48.718;8.992;2022-08-11T10:44:07;29.40;38.90
16970;DHT22;8601;48.718;8.992;2022-08-11T10:46:37;29.30;38.00
16970;DHT22;8601;48.718;8.992;2022-08-11T10:49:22;29.50;37.80
16970;DHT22;8601;48.718;8.992;2022-08-11T10:51:56;29.50;37.50
16970;DHT22;8601;48.718;8.992;2022-08-11T10:54:41;29.60;37.90
16970;DHT22;8601;48.718;8.992;2022-08-11T10:57:28;29.30;38.30
16970;DHT22;8601;48.718;8.992;2022-08-11T11:00:13;29.30;37.30
16970;DHT22;8601;48.718;8.992;2022-08-11T11:02:41;29.30;36.60
16970;DHT22;8601;48.718;8.992;2022-08-11T11:05:13;29.30;36.80
16970;DHT22;8601;48.718;8.992;2022-08-11T11:07:54;29.50;37.20
16970;DHT22;8601;48.718;8.992;2022-08-11T11:10:22;29.70;36.20
16970;DHT22;8601;48.718;8.992;2022-08-11T11:12:55;29.80;36.40
16970;DHT22;8601;48.718;8.992;2022-08-11T11:15:43;29.80;37.30
16970;DHT22;8601;48.718;8.992;2022-08-11T11:18:32;29.80;37.60
16970;DHT22;8601;48.718;8.992;2022-08-11T11:21:04;29.90;36.00
16970;DHT22;8601;48.718;8.992;2022-08-11T11:23:35;30.10;36.10
16970;DHT22;8601;48.718;8.992;2022-08-11T11:26:28;30.00;35.30
16970;DHT22;8601;48.718;8.992;2022-08-11T11:32:23;30.10;36.20
16970;DHT22;8601;48.718;8.992;2022-08-11T11:35:24;30.50;36.40
16970;DHT22;8601;48.718;8.992;2022-08-11T11:37:56;30.50;35.40
16970;DHT22;8601;48.718;8.992;2022-08-11T11:40:23;30.30;35.30
16970;DHT22;8601;48.718;8.992;2022-08-11T11:42:53;30.10;35.10
16970;DHT22;8601;48.718;8.992;2022-08-11T11:45:23;29.90;35.30
16970;DHT22;8601;48.718;8.992;2022-08-11T11:47:55;30.20;36.20
16970;DHT22;8601;48.718;8.992;2022-08-11T11:50:25;30.00;35.40
16970;DHT22;8601;48.718;8.992;2022-08-11T11:52:53;29.80;35.60
16970;DHT22;8601;48.718;8.992;2022-08-11T11:55:22;29.80;36.70
16970;DHT22;8601;48.718;8.992;2022-08-11T11:57:51;29.90;35.40
16970;DHT22;8601;48.718;8.992;2022-08-11T12:00:39;30.00;36.70
16970;DHT22;8601;48.718;8.992;2022-08-11T12:03:25;30.10;35.10
16970;DHT22;8601;48.718;8.992;2022-08-11T12:05:53;30.10;35.60
16970;DHT22;8601;48.718;8.992;2022-08-11T12:08:22;30.20;35.40
16970;DHT22;8601;48.718;8.992;2022-08-11T12:10:53;30.60;34.80
16970;DHT22;8601;48.718;8.992;2022-08-11T12:13:41;30.20;34.60
16970;DHT22;8601;48.718;8.992;2022-08-11T12:16:09;30.10;34.30
16970;DHT22;8601;48.718;8.992;2022-08-11T12:18:40;30.20;34.40
16970;DHT22;8601;48.718;8.992;2022-08-11T12:21:08;30.30;33.70
16970;DHT22;8601;48.718;8.992;2022-08-11T12:23:37;30.40;34.10
16970;DHT22;8601;48.718;8.992;2022-08-11T12:26:23;30.50;34.00
16970;DHT22;8601;48.718;8.992;2022-08-11T12:29:10;30.20;33.30
16970;DHT22;8601;48.718;8.992;2022-08-11T12:31:39;30.50;33.30
16970;DHT22;8601;48.718;8.992;2022-08-11T12:34:09;30.40;33.30
16970;DHT22;8601;48.718;8.992;2022-08-11T12:36:38;30.40;34.20
16970;DHT22;8601;48.718;8.992;2022-08-11T12:39:08;29.90;33.30
16970;DHT22;8601;48.718;8.992;2022-08-11T12:41:37;30.10;34.90
16970;DHT22;8601;48.718;8.992;2022-08-11T12:44:25;30.20;33.20
16970;DHT22;8601;48.718;8.992;2022-08-11T12:47:18;30.20;33.70
16970;DHT22;8601;48.718;8.992;2022-08-11T12:49:47;30.30;33.20
16970;DHT22;8601;48.718;8.992;2022-08-11T12:52:35;30.50;33.40
16970;DHT22;8601;48.718;8.992;2022-08-11T12:55:09;30.30;33.40
16970;DHT22;8601;48.718;8.992;2022-08-11T12:57:40;30.50;32.80
16970;DHT22;8601;48.718;8.992;2022-08-11T13:00:27;30.40;33.00
16970;DHT22;8601;48.718;8.992;2022-08-11T13:03:13;30.40;32.60
16970;DHT22;8601;48.718;8.992;2022-08-11T13:06:00;30.40;32.10
16970;DHT22;8601;48.718;8.992;2022-08-11T13:08:32;30.10;32.60
16970;DHT22;8601;48.718;8.992;2022-08-11T13:11:00;30.40;32.50
16970;DHT22;8601;48.718;8.992;2022-08-11T13:13:47;30.60;32.60
16970;DHT22;8601;48.718;8.992;2022-08-11T13:16:14;30.70;32.30
16970;DHT22;8601;48.718;8.992;2022-08-11T13:18:43;30.80;32.90
16970;DHT22;8601;48.718;8.992;2022-08-11T13:21:13;30.60;32.20
16970;DHT22;8601;48.718;8.992;2022-08-11T13:23:41;30.40;32.10
16970;DHT22;8601;48.718;8.992;2022-08-11T13:26:09;30.30;31.60
16970;DHT22;8601;48.718;8.992;2022-08-11T13:28:36;30.00;33.00
16970;DHT22;8601;48.718;8.992;2022-08-11T13:31:05;30.20;32.70
16970;DHT22;8601;48.718;8.992;2022-08-11T13:33:41;30.60;33.00
16970;DHT22;8601;48.718;8.992;2022-08-11T13:36:09;30.70;33.30
16970;DHT22;8601;48.718;8.992;2022-08-11T13:38:39;30.90;31.90
16970;DHT22;8601;48.718;8.992;2022-08-11T13:41:10;30.90;33.60
16970;DHT22;8601;48.718;8.992;2022-08-11T13:43:55;30.90;32.70
16970;DHT22;8601;48.718;8.992;2022-08-11T13:46:23;30.60;33.00
16970;DHT22;8601;48.718;8.992;2022-08-11T13:48:52;30.90;32.60
16970;DHT22;8601;48.718;8.992;2022-08-11T13:51:22;30.90;32.40
16970;DHT22;8601;48.718;8.992;2022-08-11T13:53:58;31.00;32.10
16970;DHT22;8601;48.718;8.992;2022-08-11T13:56:26;30.90;31.60
16970;DHT22;8601;48.718;8.992;2022-08-11T13:58:56;30.90;32.10
16970;DHT22;8601;48.718;8.992;2022-08-11T14:01:26;30.60;31.90
16970;DHT22;8601;48.718;8.992;2022-08-11T14:04:02;30.70;32.30
16970;DHT22;8601;48.718;8.992;2022-08-11T14:06:31;30.40;32.30
16970;DHT22;8601;48.718;8.992;2022-08-11T14:09:02;30.60;32.20
16970;DHT22;8601;48.718;8.992;2022-08-11T14:11:30;30.60;32.60
16970;DHT22;8601;48.718;8.992;2022-08-11T14:14:20;30.50;31.50
16970;DHT22;8601;48.718;8.992;2022-08-11T14:16:48;30.50;32.90
16970;DHT22;8601;48.718;8.992;2022-08-11T14:19:21;30.50;33.30
16970;DHT22;8601;48.718;8.992;2022-08-11T14:21:50;30.40;32.80
16970;DHT22;8601;48.718;8.992;2022-08-11T14:24:37;30.40;32.10
16970;DHT22;8601;48.718;8.992;2022-08-11T14:27:05;30.50;32.10
16970;DHT22;8601;48.718;8.992;2022-08-11T14:29:33;30.70;31.90
16970;DHT22;8601;48.718;8.992;2022-08-11T14:32:06;30.90;31.60
16970;DHT22;8601;48.718;8.992;2022-08-11T14:34:35;30.70;32.00
16970;DHT22;8601;48.718;8.992;2022-08-11T14:37:06;30.70;33.00
16970;DHT22;8601;48.718;8.992;2022-08-11T14:39:44;30.80;31.70
16970;DHT22;8601;48.718;8.992;2022-08-11T14:42:15;30.80;32.00
16970;DHT22;8601;48.718;8.992;2022-08-11T14:45:02;30.60;31.60
16970;DHT22;8601;48.718;8.992;2022-08-11T14:47:50;30.40;31.40
16970;DHT22;8601;48.718;8.992;2022-08-11T14:50:20;30.40;32.00
16970;DHT22;8601;48.718;8.992;2022-08-11T14:52:50;30.30;32.20
16970;DHT22;8601;48.718;8.992;2022-08-11T14:55:24;30.40;32.10
16970;DHT22;8601;48.718;8.992;2022-08-11T14:58:10;30.50;31.90
16970;DHT22;8601;48.718;8.992;2022-08-11T15:00:40;30.30;31.70
16970;DHT22;8601;48.718;8.992;2022-08-11T15:03:09;30.40;32.50
16970;DHT22;8601;48.718;8.992;2022-08-11T15:05:38;30.30;32.00
16970;DHT22;8601;48.718;8.992;2022-08-11T15:08:07;30.20;31.60
16970;DHT22;8601;48.718;8.992;2022-08-11T15:10:36;30.40;31.40
16970;DHT22;8601;48.718;8.992;2022-08-11T15:13:04;30.40;31.40
16970;DHT22;8601;48.718;8.992;2022-08-11T15:15:33;30.20;32.30
16970;DHT22;8601;48.718;8.992;2022-08-11T15:18:19;30.10;31.10
16970;DHT22;8601;48.718;8.992;2022-08-11T15:20:48;30.20;31.50
16970;DHT22;8601;48.718;8.992;2022-08-11T15:23:33;29.90;31.80
16970;DHT22;8601;48.718;8.992;2022-08-11T15:26:32;29.80;32.30
16970;DHT22;8601;48.718;8.992;2022-08-11T15:29:27;29.90;31.50
16970;DHT22;8601;48.718;8.992;2022-08-11T15:32:13;30.00;32.70
16970;DHT22;8601;48.718;8.992;2022-08-11T15:35:00;30.10;32.10
16970;DHT22;8601;48.718;8.992;2022-08-11T15:37:50;30.10;31.70
16970;DHT22;8601;48.718;8.992;2022-08-11T15:40:23;30.20;31.60
16970;DHT22;8601;48.718;8.992;2022-08-11T15:43:13;30.20;30.60
16970;DHT22;8601;48.718;8.992;2022-08-11T15:46:02;30.20;32.00
16970;DHT22;8601;48.718;8.992;2022-08-11T15:48:42;30.00;30.90
16970;DHT22;8601;48.718;8.992;2022-08-11T15:51:13;30.00;31.40
16970;DHT22;8601;48.718;8.992;2022-08-11T15:53:45;30.10;31.10
16970;DHT22;8601;48.718;8.992;2022-08-11T15:56:14;30.00;30.80
16970;DHT22;8601;48.718;8.992;2022-08-11T15:58:46;30.10;31.20
16970;DHT22;8601;48.718;8.992;2022-08-11T16:01:33;30.00;31.10
16970;DHT22;8601;48.718;8.992;2022-08-11T16:04:20;29.90;31.10
16970;DHT22;8601;48.718;8.992;2022-08-11T16:06:53;29.80;32.60
16970;DHT22;8601;48.718;8.992;2022-08-11T16:09:30;29.60;31.00
16970;DHT22;8601;48.718;8.992;2022-08-11T16:12:03;29.70;31.60
16970;DHT22;8601;48.718;8.992;2022-08-11T16:14:35;29.70;30.80
16970;DHT22;8601;48.718;8.992;2022-08-11T16:17:22;29.70;31.60
16970;DHT22;8601;48.718;8.992;2022-08-11T16:19:52;29.80;32.20
16970;DHT22;8601;48.718;8.992;2022-08-11T16:22:22;29.50;31.50
16970;DHT22;8601;48.718;8.992;2022-08-11T16:25:02;29.50;32.50
16970;DHT22;8601;48.718;8.992;2022-08-11T16:27:34;29.50;32.20
16970;DHT22;8601;48.718;8.992;2022-08-11T16:30:06;29.40;32.30
16970;DHT22;8601;48.718;8.992;2022-08-11T16:32:35;29.30;32.80
16970;DHT22;8601;48.718;8.992;2022-08-11T16:35:08;29.20;31.50
16970;DHT22;8601;48.718;8.992;2022-08-11T16:37:58;29.20;32.20
16970;DHT22;8601;48.718;8.992;2022-08-11T16:40:46;29.00;31.20
16970;DHT22;8601;48.718;8.992;2022-08-11T16:43:16;28.90;32.30
16970;DHT22;8601;48.718;8.992;2022-08-11T16:46:05;28.90;32.60
16970;DHT22;8601;48.718;8.992;2022-08-11T16:48:50;28.80;32.80
16970;DHT22;8601;48.718;8.992;2022-08-11T16:51:19;28.80;33.40
16970;DHT22;8601;48.718;8.992;2022-08-11T16:53:47;28.70;33.50
16970;DHT22;8601;48.718;8.992;2022-08-11T16:56:16;28.70;34.10
16970;DHT22;8601;48.718;8.992;2022-08-11T16:58:47;28.70;33.20
16970;DHT22;8601;48.718;8.992;2022-08-11T17:01:34;28.60;33.50
16970;DHT22;8601;48.718;8.992;2022-08-11T17:04:06;28.50;33.90
16970;DHT22;8601;48.718;8.992;2022-08-11T17:06:51;28.50;33.80
16970;DHT22;8601;48.718;8.992;2022-08-11T17:09:37;28.60;33.80
16970;DHT22;8601;48.718;8.992;2022-08-11T17:12:25;28.50;34.30
16970;DHT22;8601;48.718;8.992;2022-08-11T17:15:16;28.50;34.20
16970;DHT22;8601;48.718;8.992;2022-08-11T17:18:05;28.30;33.50
16970;DHT22;8601;48.718;8.992;2022-08-11T17:20:33;28.10;35.00
16970;DHT22;8601;48.718;8.992;2022-08-11T17:23:03;27.90;34.80
16970;DHT22;8601;48.718;8.992;2022-08-11T17:25:50;27.80;34.80
16970;DHT22;8601;48.718;8.992;2022-08-11T17:28:18;27.70;35.80
16970;DHT22;8601;48.718;8.992;2022-08-11T17:30:46;27.70;36.40
16970;DHT22;8601;48.718;8.992;2022-08-11T17:33:35;27.60;35.90
16970;DHT22;8601;48.718;8.992;2022-08-11T17:36:20;27.40;36.00
16970;DHT22;8601;48.718;8.992;2022-08-11T17:38:49;27.40;36.00
16970;DHT22;8601;48.718;8.992;2022-08-11T17:41:17;27.30;35.60
16970;DHT22;8601;48.718;8.992;2022-08-11T17:44:04;27.20;36.90
16970;DHT22;8601;48.718;8.992;2022-08-11T17:46:48;27.10;36.80